Time;durP1;ratioP1;P1;durP2;ratioP2;P2;SDS_P1;SDS_P2;PMS_P1;PMS_P2;Temp;Humidity;BMP_temperature;BMP_pressure;BME280_temperature;BME280_humidity;BME280_pressure;Samples;Min_cycle;Max_cycle;Signal;HPM_P1;HPM_P2
2022/05/20 00:02:01;;;;;;;4.4;3.5;;;;;;;17.19;96.18945;946.3653;;;;
2022/05/20 00:04:30;;;;;;;4;3.4;;;;;;;17.24;96.5957;946.4653;;;;
2022/05/20 00:07:05;;;;;;;6.2;3.1;;;;;;;17.41;95.68262;946.6677;;;;
2022/05/20 00:09:31;;;;;;;4.9;3.3;;;;;;;17.45;94.00781;946.6581;;;;
2022/05/20 00:11:56;;;;;;;2.8;2.5;;;;;;;17.38;91.08105;946.7225;;;;
2022/05/20 00:14:21;;;;;;;3;2.7;;;;;;;17.38;92.72852;946.8134;;;;
2022/05/20 00:16:49;;;;;;;3.6;3.3;;;;;;;17.45;92.94043;946.8353;;;;
2022/05/20 00:19:14;;;;;;;4.2;3;;;;;;;17.48;92.27539;946.861;;;;
2022/05/20 00:21:39;;;;;;;3.7;3;;;;;;;17.53;91.61035;946.748;;;;
2022/05/20 00:24:04;;;;;;;4.4;3.2;;;;;;;17.44;92.18262;946.7459;;;;
2022/05/20 00:26:32;;;;;;;4.9;3.4;;;;;;;17.37;93.62891;946.762;;;;
2022/05/20 00:28:57;;;;;;;3.8;3.4;;;;;;;17.28;94.96875;946.8049;;;;
2022/05/20 00:31:23;;;;;;;3.8;3.3;;;;;;;17.32;95.50977;946.7645;;;;
2022/05/20 00:33:48;;;;;;;3.9;3.2;;;;;;;17.39;95.11914;946.7587;;;;
2022/05/20 00:36:16;;;;;;;3.8;3.3;;;;;;;17.48;94.41992;946.7224;;;;
2022/05/20 00:38:41;;;;;;;4.1;3.1;;;;;;;17.33;94.74805;946.7814;;;;
2022/05/20 00:41:08;;;;;;;3.7;3.4;;;;;;;17.4;94.45996;946.8456;;;;
2022/05/20 00:43:33;;;;;;;5.7;3.3;;;;;;;17.38;94.19141;946.861;;;;
2022/05/20 00:45:59;;;;;;;4.1;3.7;;;;;;;17.41;93.78027;946.7739;;;;
2022/05/20 00:48:24;;;;;;;4.7;3.8;;;;;;;17.47;93.9541;946.8134;;;;
2022/05/20 00:50:49;;;;;;;4.3;3.2;;;;;;;17.44;93.48438;946.8449;;;;
2022/05/20 00:53:17;;;;;;;4.7;3.1;;;;;;;17.45;93.76465;946.7676;;;;
2022/05/20 00:55:42;;;;;;;4.1;2.9;;;;;;;17.35;93.42969;946.6573;;;;
2022/05/20 00:58:07;;;;;;;4.1;2.9;;;;;;;17.22;94.75977;946.574;;;;
2022/05/20 01:00:35;;;;;;;4.9;3.2;;;;;;;17.22;95.5;946.6365;;;;
2022/05/20 01:03:01;;;;;;;3.4;2.9;;;;;;;17.1;96.49414;946.5363;;;;
2022/05/20 01:05:26;;;;;;;3.7;3.4;;;;;;;17.06;96.98438;946.5315;;;;
2022/05/20 01:07:51;;;;;;;3.9;3.2;;;;;;;16.88;97.99707;946.5026;;;;
2022/05/20 01:10:16;;;;;;;5.2;3.4;;;;;;;16.68;98.61426;946.3963;;;;
2022/05/20 01:12:43;;;;;;;4.4;3.9;;;;;;;16.58;99.72461;946.309;;;;
2022/05/20 01:15:08;;;;;;;4.8;3.7;;;;;;;16.59;99.50879;946.2406;;;;
2022/05/20 01:17:37;;;;;;;4.2;3.4;;;;;;;16.57;99.34082;946.2358;;;;
2022/05/20 01:20:05;;;;;;;5.4;3.5;;;;;;;16.66;98.08789;946.2143;;;;
2022/05/20 01:22:30;;;;;;;3.9;3.5;;;;;;;16.69;97.48145;946.1583;;;;
2022/05/20 01:24:55;;;;;;;5.3;3.9;;;;;;;16.61;97.70703;946.0845;;;;
2022/05/20 01:27:21;;;;;;;4.5;3.4;;;;;;;16.59;98.13086;945.964;;;;
2022/05/20 01:29:48;;;;;;;4.6;3.4;;;;;;;16.54;98.81543;945.9625;;;;
2022/05/20 01:32:13;;;;;;;5.2;4;;;;;;;16.34;100;946.0089;;;;
2022/05/20 01:34:38;;;;;;;5.4;4.4;;;;;;;16.39;99.50977;946.0997;;;;
2022/05/20 01:37:03;;;;;;;5.1;4.5;;;;;;;16.41;99.77148;946.0748;;;;
2022/05/20 01:39:33;;;;;;;6;4.4;;;;;;;16.37;100;946.0153;;;;
2022/05/20 01:41:57;;;;;;;6.4;4.1;;;;;;;16.32;100;946.0002;;;;
2022/05/20 01:44:25;;;;;;;5.7;4.4;;;;;;;16.27;100;945.9695;;;;
2022/05/20 01:46:51;;;;;;;5.6;4.4;;;;;;;16.19;100;945.9219;;;;
2022/05/20 01:49:16;;;;;;;5.3;4.6;;;;;;;16.23;100;945.9455;;;;
2022/05/20 01:51:43;;;;;;;5.8;4.9;;;;;;;16.15;100;945.8158;;;;
2022/05/20 01:54:08;;;;;;;6.1;4.9;;;;;;;15.99;100;945.809;;;;
2022/05/20 01:56:33;;;;;;;5.3;4.5;;;;;;;15.83;100;945.7293;;;;
2022/05/20 01:58:58;;;;;;;6.2;4.3;;;;;;;15.82;100;945.6699;;;;
2022/05/20 02:01:24;;;;;;;5.5;4.6;;;;;;;15.87;100;945.5887;;;;
2022/05/20 02:03:49;;;;;;;5.7;4.7;;;;;;;15.92;100;945.6716;;;;
2022/05/20 02:06:14;;;;;;;5.2;4.5;;;;;;;15.98;100;945.6234;;;;
2022/05/20 02:08:39;;;;;;;6;4.1;;;;;;;16.05;99.89453;945.6092;;;;
2022/05/20 02:11:04;;;;;;;5.8;3.8;;;;;;;16.05;99.25879;945.5756;;;;
2022/05/20 02:13:29;;;;;;;4.9;4.4;;;;;;;16.07;98.67285;945.5787;;;;
2022/05/20 02:15:55;;;;;;;4.7;3.9;;;;;;;16.01;99.11035;945.5342;;;;
2022/05/20 02:18:20;;;;;;;4.2;3.8;;;;;;;15.97;99.55273;945.47;;;;
2022/05/20 02:20:45;;;;;;;5;3.8;;;;;;;16.04;99.03711;945.5032;;;;
2022/05/20 02:23:10;;;;;;;6.5;4.1;;;;;;;15.95;99.04199;945.4659;;;;
2022/05/20 02:25:37;;;;;;;5.1;3.8;;;;;;;15.95;98.91309;945.4202;;;;
2022/05/20 02:28:02;;;;;;;6;4.1;;;;;;;15.9;98.81934;945.4531;;;;
2022/05/20 02:30:28;;;;;;;4.6;3.7;;;;;;;15.88;98.83887;945.4747;;;;
2022/05/20 02:32:54;;;;;;;4.5;3.8;;;;;;;15.84;98.25098;945.449;;;;
2022/05/20 02:35:22;;;;;;;4.1;3.6;;;;;;;15.85;97.87305;945.502;;;;
2022/05/20 02:37:47;;;;;;;5.1;3.6;;;;;;;15.87;97.79395;945.5069;;;;
2022/05/20 02:40:17;;;;;;;3.8;3.2;;;;;;;15.85;97.48047;945.4169;;;;
2022/05/20 02:42:42;;;;;;;4.2;3.3;;;;;;;15.93;96.33105;945.4981;;;;
2022/05/20 02:45:12;;;;;;;4.4;3;;;;;;;16;94.66797;945.4973;;;;
2022/05/20 02:47:39;;;;;;;3.6;2.7;;;;;;;16.09;94.47949;945.5217;;;;
2022/05/20 02:50:04;;;;;;;3.9;3.3;;;;;;;16.05;94.7959;945.5627;;;;
2022/05/20 02:52:32;;;;;;;4.4;3.2;;;;;;;16.06;94.46191;945.5715;;;;
2022/05/20 02:54:57;;;;;;;3.5;3.2;;;;;;;16.07;94.54492;945.5217;;;;
2022/05/20 02:57:27;;;;;;;4.5;3.6;;;;;;;16.13;94.08594;945.5715;;;;
2022/05/20 03:04:48;;;;;;;4.7;3.3;;;;;;;15.95;94.90332;945.6202;;;;
2022/05/20 03:07:14;;;;;;;4.3;3.8;;;;;;;15.87;95.24219;945.6539;;;;
2022/05/20 03:09:38;;;;;;;4.9;4.1;;;;;;;15.83;95.08398;945.6057;;;;
2022/05/20 03:12:05;;;;;;;7.2;4.1;;;;;;;15.65;96.01465;945.642;;;;
2022/05/20 03:14:31;;;;;;;4.8;4.3;;;;;;;15.64;96.05957;945.5753;;;;
2022/05/20 03:16:55;;;;;;;5.2;4.4;;;;;;;15.51;97.58887;945.5825;;;;
2022/05/20 03:19:23;;;;;;;7.1;4.3;;;;;;;15.52;97.47461;945.6459;;;;
2022/05/20 03:21:48;;;;;;;6;5;;;;;;;15.49;97.86133;945.5825;;;;
2022/05/20 03:24:16;;;;;;;4.8;4;;;;;;;15.51;98.38574;945.6251;;;;
2022/05/20 03:26:40;;;;;;;4.8;4.3;;;;;;;15.45;98.39453;945.5823;;;;
2022/05/20 03:29:09;;;;;;;5.1;4;;;;;;;15.51;97.73828;945.6138;;;;
2022/05/20 03:31:34;;;;;;;5.5;4;;;;;;;15.39;98.13965;945.6389;;;;
2022/05/20 03:34:05;;;;;;;7.3;4.2;;;;;;;15.41;98.11816;945.6069;;;;
2022/05/20 03:36:27;;;;;;;4.4;4;;;;;;;15.34;98.09277;945.5505;;;;
2022/05/20 03:38:52;;;;;;;4.7;3.9;;;;;;;15.4;98.07227;945.6887;;;;
2022/05/20 03:41:17;;;;;;;5.1;4.3;;;;;;;15.33;97.89258;945.6989;;;;
2022/05/20 03:43:45;;;;;;;5.7;4.3;;;;;;;15.11;98.91699;945.6297;;;;
2022/05/20 03:46:11;;;;;;;4.9;4.3;;;;;;;15.1;99.83789;945.6473;;;;
2022/05/20 03:48:40;;;;;;;6.1;4.5;;;;;;;15.15;99.39063;945.7076;;;;
2022/05/20 03:51:05;;;;;;;6.5;4.8;;;;;;;15.18;99.84473;945.6838;;;;
2022/05/20 03:53:32;;;;;;;7.3;5.1;;;;;;;15.21;99.71484;945.6638;;;;
2022/05/20 03:55:58;;;;;;;6.2;4.6;;;;;;;15.19;99.7334;945.7352;;;;
2022/05/20 03:58:25;;;;;;;6.7;4.3;;;;;;;15.35;98.61426;945.6453;;;;
2022/05/20 04:02:37;;;;;;;5.9;3.9;;;;;;;15.17;98.93164;945.7503;;;;
2022/05/20 04:05:16;;;;;;;6.1;4.1;;;;;;;15.18;99.38379;945.7431;;;;
2022/05/20 04:07:47;;;;;;;4.4;4;;;;;;;15.19;99.35254;945.7335;;;;
2022/05/20 04:10:18;;;;;;;6;4.2;;;;;;;15.4;98.53418;945.7794;;;;
2022/05/20 04:12:49;;;;;;;6.5;4.7;;;;;;;15.31;98.00586;945.7703;;;;
2022/05/20 04:15:20;;;;;;;6.1;4.3;;;;;;;15.31;98.10938;945.8184;;;;
2022/05/20 04:17:50;;;;;;;5.2;4.7;;;;;;;15.33;97.61914;945.7751;;;;
2022/05/20 04:20:15;;;;;;;9.2;6.2;;;;;;;15.36;97.59082;945.7841;;;;
2022/05/20 04:22:45;;;;;;;7.7;5.7;;;;;;;15.43;97.03906;945.7958;;;;
2022/05/20 04:25:11;;;;;;;6.7;5.2;;;;;;;15.45;96.2373;945.7509;;;;
2022/05/20 04:27:35;;;;;;;6;5;;;;;;;15.35;96.36328;945.7263;;;;
2022/05/20 04:30:02;;;;;;;8.9;6.2;;;;;;;15.28;97.08789;945.7261;;;;
2022/05/20 04:32:27;;;;;;;8.3;6.5;;;;;;;15.24;97.73828;945.7227;;;;
2022/05/20 04:34:53;;;;;;;8.4;5.6;;;;;;;15.37;97.2002;945.7183;;;;
2022/05/20 04:37:19;;;;;;;7.5;6.6;;;;;;;15.55;96.77832;945.7954;;;;
2022/05/20 04:39:45;;;;;;;6.6;5.3;;;;;;;15.77;95.87891;945.7217;;;;
2022/05/20 04:47:02;;;;;;;9.5;5.5;;;;;;;15.48;96.90137;945.7703;;;;
2022/05/20 04:49:28;;;;;;;5.4;4.5;;;;;;;15.58;96.44922;945.748;;;;
2022/05/20 04:51:54;;;;;;;6.4;4.1;;;;;;;15.62;96.04199;945.7632;;;;
2022/05/20 04:56:44;;;;;;;5.5;3.8;;;;;;;15.64;95.78223;945.7648;;;;
2022/05/20 04:59:09;;;;;;;5.2;3.7;;;;;;;15.62;96.09961;945.7696;;;;
2022/05/20 05:01:35;;;;;;;5.2;4.1;;;;;;;15.62;96.13574;945.7712;;;;
2022/05/20 05:04:04;;;;;;;5.3;4;;;;;;;15.78;96.34277;945.769;;;;
2022/05/20 05:06:29;;;;;;;4.6;4.1;;;;;;;15.82;96.08691;945.7389;;;;
2022/05/20 05:08:58;;;;;;;5.6;3.9;;;;;;;15.99;95.09375;945.6339;;;;
2022/05/20 05:11:23;;;;;;;6.1;3.9;;;;;;;16.8;95.17773;945.7205;;;;
2022/05/20 05:13:50;;;;;;;5.2;3.2;;;;;;;17.46;87.84961;945.6998;;;;
2022/05/20 05:16:15;;;;;;;4.9;3.5;;;;;;;18.48;82.07715;945.717;;;;
2022/05/20 05:18:41;;;;;;;6.6;3.5;;;;;;;19.19;79.4502;945.6252;;;;
2022/05/20 05:21:06;;;;;;;6.9;3.7;;;;;;;20.23;75.25977;945.6135;;;;
2022/05/20 05:23:34;;;;;;;5.4;3.4;;;;;;;20.49;72.99121;945.6931;;;;
2022/05/20 05:25:59;;;;;;;3.3;2.8;;;;;;;20.42;72.85156;945.6537;;;;
2022/05/20 05:28:26;;;;;;;4.6;2.8;;;;;;;20.26;74.7627;945.6437;;;;
2022/05/20 05:30:51;;;;;;;4.7;2.8;;;;;;;20.42;74.25098;945.6592;;;;
2022/05/20 05:33:18;;;;;;;4.5;2.7;;;;;;;21.09;73.26563;945.663;;;;
2022/05/20 05:35:43;;;;;;;3.5;3.1;;;;;;;21.42;69.26953;945.6505;;;;
2022/05/20 05:38:10;;;;;;;5.4;3.3;;;;;;;22.26;68.55566;945.657;;;;
2022/05/20 05:40:35;;;;;;;4.1;2.9;;;;;;;20.74;71.67773;945.6299;;;;
2022/05/20 05:43:07;;;;;;;5.2;2.3;;;;;;;20.42;70.49219;945.6058;;;;
2022/05/20 05:45:36;;;;;;;7.3;2.6;;;;;;;20.97;70.98926;945.6211;;;;
2022/05/20 05:48:07;;;;;;;4.4;2.3;;;;;;;21.72;68.08594;945.5806;;;;
2022/05/20 05:50:35;;;;;;;4.6;2.4;;;;;;;21.81;66.94141;945.5129;;;;
2022/05/20 05:53:01;;;;;;;4.6;2.7;;;;;;;22.33;64.79004;945.4728;;;;
2022/05/20 05:55:26;;;;;;;4.2;2.5;;;;;;;22.7;64.95117;945.5549;;;;
2022/05/20 05:57:54;;;;;;;4.1;2.7;;;;;;;23.87;60.97852;945.5212;;;;
2022/05/20 06:00:19;;;;;;;3.3;2.4;;;;;;;24.01;62.375;945.5161;;;;
2022/05/20 06:02:47;;;;;;;3.6;2.1;;;;;;;24.96;57.04492;945.4631;;;;
2022/05/20 06:05:12;;;;;;;2.9;2.1;;;;;;;25.65;52.07617;945.4973;;;;
2022/05/20 06:07:41;;;;;;;3.1;2.4;;;;;;;26.62;52.11719;945.4487;;;;
2022/05/20 06:10:06;;;;;;;3;2.1;;;;;;;27.59;46.90234;945.4703;;;;
2022/05/20 06:12:33;;;;;;;4.9;2;;;;;;;26.12;49.78809;945.405;;;;
2022/05/20 06:14:58;;;;;;;1.7;1.5;;;;;;;27.42;49.80273;945.4322;;;;
2022/05/20 06:17:28;;;;;;;5.8;2;;;;;;;28.64;44.91797;945.3803;;;;
2022/05/20 06:19:57;;;;;;;4.6;1.7;;;;;;;28.6;43.41504;945.3533;;;;
2022/05/20 06:22:22;;;;;;;2.2;1.8;;;;;;;28.08;45.63379;945.3475;;;;
2022/05/20 06:24:47;;;;;;;6.5;2.5;;;;;;;27.7;45.80957;945.3652;;;;
2022/05/20 06:27:14;;;;;;;3.9;2.2;;;;;;;27.03;48.0752;945.3016;;;;
2022/05/20 06:29:40;;;;;;;4.2;2.1;;;;;;;28.35;46.125;945.2874;;;;
2022/05/20 06:32:04;;;;;;;2.5;2;;;;;;;27.12;46.5918;945.2592;;;;
2022/05/20 06:39:48;;;;;;;2.8;1.8;;;;;;;25.54;49.39355;945.1959;;;;
2022/05/20 06:41:47;;;;;;;4.8;2.3;;;;;;;26.99;48.65234;945.2545;;;;
2022/05/20 06:44:17;;;;;;;4.2;2.2;;;;;;;25.83;50.9043;945.2022;;;;
2022/05/20 06:46:41;;;;;;;3.5;2.2;;;;;;;25.69;52.02148;945.1975;;;;
2022/05/20 06:49:08;;;;;;;2.8;2.1;;;;;;;26.16;51.31836;945.2167;;;;
2022/05/20 06:51:33;;;;;;;4.3;2.1;;;;;;;28.61;45.15332;945.1266;;;;
2022/05/20 06:54:02;;;;;;;2.9;2;;;;;;;29.67;42.48145;945.0991;;;;
2022/05/20 06:56:28;;;;;;;2.5;2.1;;;;;;;31.35;40.11328;945.1482;;;;
2022/05/20 06:58:55;;;;;;;3.9;2.2;;;;;;;28.98;42.97461;945.1328;;;;
2022/05/20 07:01:20;;;;;;;3.2;2.1;;;;;;;29.57;42.79297;945.0496;;;;
2022/05/20 07:03:48;;;;;;;2.6;2;;;;;;;29.01;43.40625;945.0705;;;;
2022/05/20 07:06:13;;;;;;;2.2;1.9;;;;;;;28.67;44.15918;945.0273;;;;
2022/05/20 07:08:39;;;;;;;3.2;2.1;;;;;;;27.46;45.83301;945.0042;;;;
2022/05/20 07:11:04;;;;;;;3;2.2;;;;;;;26.7;48.52734;944.9772;;;;
2022/05/20 07:13:31;;;;;;;2.5;2.1;;;;;;;26.99;47.39551;944.9996;;;;
2022/05/20 07:15:57;;;;;;;3.7;2.1;;;;;;;26.7;46.44238;944.9651;;;;
2022/05/20 07:18:23;;;;;;;2.9;2.1;;;;;;;29.83;40.6709;944.8845;;;;
2022/05/20 07:20:48;;;;;;;2.2;1.9;;;;;;;27.95;44.19629;944.822;;;;
2022/05/20 07:23:16;;;;;;;2.4;2;;;;;;;29.65;42.14551;944.8083;;;;
2022/05/20 07:25:41;;;;;;;4.7;1.9;;;;;;;30.49;41.83008;944.8033;;;;
2022/05/20 07:28:07;;;;;;;2.4;2;;;;;;;28.86;42.32129;944.7829;;;;
2022/05/20 07:30:31;;;;;;;4.8;2.1;;;;;;;29.89;40.59277;944.7422;;;;
2022/05/20 07:33:00;;;;;;;4.4;2.1;;;;;;;32.04;38.87988;944.7516;;;;
2022/05/20 07:35:25;;;;;;;2.6;2.2;;;;;;;31.65;36.03223;944.7723;;;;
2022/05/20 07:37:53;;;;;;;2.9;2.1;;;;;;;28.45;41.25977;944.6898;;;;
2022/05/20 07:40:18;;;;;;;2.4;2.1;;;;;;;27.84;43.15234;944.7157;;;;
2022/05/20 07:42:47;;;;;;;2.8;2.5;;;;;;;28.74;43.4873;944.6484;;;;
2022/05/20 07:45:19;;;;;;;3.1;2.1;;;;;;;29.9;40.16406;944.711;;;;
2022/05/20 07:47:47;;;;;;;3.9;2.2;;;;;;;30.22;39.25;944.6262;;;;
2022/05/20 07:50:12;;;;;;;3.1;2.3;;;;;;;30.33;39.8916;944.6473;;;;
2022/05/20 07:55:10;;;;;;;4.6;2.6;;;;;;;31.9;37.88574;944.6072;;;;
2022/05/20 07:57:35;;;;;;;2.1;1.8;;;;;;;31.12;36.5166;944.5995;;;;
2022/05/20 08:00:03;;;;;;;2.7;1.8;;;;;;;29.68;40.22754;944.5251;;;;
2022/05/20 08:02:28;;;;;;;3.3;2;;;;;;;31.26;36.58887;944.5405;;;;
2022/05/20 08:04:56;;;;;;;2.7;2.1;;;;;;;30.18;37.82617;944.5322;;;;
2022/05/20 08:07:20;;;;;;;2.2;1.9;;;;;;;29.97;39.57324;944.491;;;;
2022/05/20 08:09:45;;;;;;;1.8;1.7;;;;;;;30.31;38.37402;944.4447;;;;
2022/05/20 08:12:11;;;;;;;2.6;2;;;;;;;29.92;38.28125;944.4615;;;;
2022/05/20 08:14:39;;;;;;;4.2;1.8;;;;;;;30.52;35.36914;944.4369;;;;
2022/05/20 08:17:04;;;;;;;4.5;1.8;;;;;;;32.28;33.93652;944.4185;;;;
2022/05/20 08:19:31;;;;;;;2.2;1.9;;;;;;;31.62;34.5332;944.4264;;;;
2022/05/20 08:21:57;;;;;;;3;1.9;;;;;;;32.32;33.31543;944.3186;;;;
2022/05/20 08:24:23;;;;;;;4.9;2.3;;;;;;;32.27;35.62598;944.3014;;;;
2022/05/20 08:26:48;;;;;;;2.5;1.8;;;;;;;34.08;34.05859;944.288;;;;
2022/05/20 08:29:17;;;;;;;2.4;1.7;;;;;;;33.3;32.14941;944.157;;;;
2022/05/20 08:31:42;;;;;;;4.1;1.8;;;;;;;33.7;32.08105;944.2202;;;;
2022/05/20 08:34:09;;;;;;;2.5;2;;;;;;;34.7;32.65918;944.1599;;;;
2022/05/20 08:36:34;;;;;;;1.7;1.6;;;;;;;35.57;29.68945;944.158;;;;
2022/05/20 08:39:01;;;;;;;2.2;1.9;;;;;;;35.33;29.46875;944.0781;;;;
2022/05/20 08:41:27;;;;;;;2.6;2;;;;;;;36.25;27.25293;944.0418;;;;
2022/05/20 08:43:55;;;;;;;1.8;1.7;;;;;;;35.42;27.27637;944.045;;;;
2022/05/20 08:46:20;;;;;;;3.3;1.7;;;;;;;34.09;29.99023;943.9684;;;;
2022/05/20 08:48:48;;;;;;;3.4;1.9;;;;;;;35.07;29.11328;943.9411;;;;
2022/05/20 08:51:13;;;;;;;2.2;2;;;;;;;34.73;29.45313;943.8815;;;;
2022/05/20 08:53:38;;;;;;;3.2;1.8;;;;;;;32.73;30.47656;943.847;;;;
2022/05/20 08:56:05;;;;;;;3;1.8;;;;;;;33.84;31.73047;943.8265;;;;
2022/05/20 08:58:31;;;;;;;1.9;1.8;;;;;;;34.82;29.88184;943.7996;;;;
2022/05/20 09:00:55;;;;;;;5.2;2;;;;;;;32.81;30.24316;943.7458;;;;
2022/05/20 09:03:22;;;;;;;69.2;29.3;;;;;;;33.57;30.65332;943.6727;;;;
2022/05/20 09:05:49;;;;;;;22.6;11.4;;;;;;;34.02;29.75684;943.7092;;;;
2022/05/20 09:08:14;;;;;;;5.4;2.8;;;;;;;33.86;29.53027;943.7238;;;;
2022/05/20 09:10:40;;;;;;;12.4;6.3;;;;;;;32.98;30.26563;943.6386;;;;
2022/05/20 09:13:05;;;;;;;9.2;3.8;;;;;;;32.61;30.4209;943.6017;;;;
2022/05/20 09:15:48;;;;;;;14.8;6.5;;;;;;;33.43;35.28516;943.582;;;;
2022/05/20 09:18:00;;;;;;;13.9;6.1;;;;;;;34.08;29.88184;943.5591;;;;
2022/05/20 09:20:25;;;;;;;8.1;3.9;;;;;;;31.76;31.84863;943.5161;;;;
2022/05/20 09:22:51;;;;;;;11.1;5.6;;;;;;;32.63;32.78613;943.4739;;;;
2022/05/20 09:25:20;;;;;;;3.3;1.9;;;;;;;32.57;31.5459;943.3808;;;;
2022/05/20 09:27:46;;;;;;;5.5;3;;;;;;;33.68;31.1416;943.3938;;;;
2022/05/20 09:30:12;;;;;;;6.5;3.1;;;;;;;34.04;31.8291;943.3836;;;;
2022/05/20 09:32:38;;;;;;;3.9;2.3;;;;;;;33.94;30.00391;943.2877;;;;
2022/05/20 09:35:08;;;;;;;5.9;2.1;;;;;;;34.18;27.9375;943.2433;;;;
2022/05/20 09:37:35;;;;;;;2.8;1.7;;;;;;;34.61;27.92676;943.1928;;;;
2022/05/20 09:40:04;;;;;;;2.7;1.7;;;;;;;34.24;28.26563;943.1838;;;;
2022/05/20 09:42:39;;;;;;;2.3;2;;;;;;;33.95;29.27051;943.1669;;;;
2022/05/20 09:45:10;;;;;;;3;1.8;;;;;;;33.64;29.83984;943.1453;;;;
2022/05/20 09:47:42;;;;;;;3.1;1.7;;;;;;;33.27;29.32324;943.0491;;;;
2022/05/20 09:50:13;;;;;;;4.8;2.1;;;;;;;33.59;30.38965;943.0374;;;;
2022/05/20 09:52:45;;;;;;;3;1.9;;;;;;;33.63;29.37109;943.0477;;;;
2022/05/20 09:55:14;;;;;;;10;2.3;;;;;;;33.31;28.41211;943.0103;;;;
2022/05/20 09:57:45;;;;;;;2.4;1.8;;;;;;;32.11;29.78809;942.9932;;;;
2022/05/20 10:00:15;;;;;;;2.7;1.9;;;;;;;33.01;30.55469;942.9694;;;;
2022/05/20 10:02:41;;;;;;;3.3;2.2;;;;;;;31.69;29.74805;942.8844;;;;
2022/05/20 10:05:13;;;;;;;3.7;1.9;;;;;;;32.78;31.77637;942.9156;;;;
2022/05/20 10:07:40;;;;;;;4;2.1;;;;;;;33.6;31.90625;942.9088;;;;
2022/05/20 10:10:05;;;;;;;4.7;2.1;;;;;;;33.77;28.62109;942.8732;;;;
2022/05/20 10:12:32;;;;;;;2.9;2;;;;;;;33.14;29.03809;942.7737;;;;
2022/05/20 10:14:58;;;;;;;2.2;2;;;;;;;33.63;30.65723;942.7661;;;;
2022/05/20 10:17:24;;;;;;;3;2;;;;;;;33.9;29.5918;942.7265;;;;
2022/05/20 10:19:50;;;;;;;4.3;1.9;;;;;;;33.99;27.26367;942.6382;;;;
2022/05/20 10:22:17;;;;;;;3.2;2;;;;;;;33.84;29.21582;942.6055;;;;
2022/05/20 10:24:43;;;;;;;5.4;2.3;;;;;;;34.07;28.55566;942.5742;;;;
2022/05/20 10:27:10;;;;;;;1.8;1.7;;;;;;;34.11;29.24512;942.5354;;;;
2022/05/20 10:34:25;;;;;;;3.5;1.8;;;;;;;33.47;28.24121;942.4345;;;;
2022/05/20 10:36:51;;;;;;;2.2;1.6;;;;;;;33.31;29.27734;942.358;;;;
2022/05/20 10:39:16;;;;;;;3.5;2.1;;;;;;;33.66;27.20703;942.3378;;;;
2022/05/20 10:41:42;;;;;;;5.2;1.9;;;;;;;34.14;28.21191;942.293;;;;
2022/05/20 10:49:01;;;;;;;3.9;1.9;;;;;;;32.72;27.66699;942.0176;;;;
2022/05/20 10:51:26;;;;;;;4;2;;;;;;;33.42;28.65918;942.0901;;;;
2022/05/20 10:53:51;;;;;;;3.1;1.8;;;;;;;33.48;27.70117;942.077;;;;
2022/05/20 10:56:16;;;;;;;3.1;1.9;;;;;;;33.35;30.14551;942.0475;;;;
2022/05/20 10:58:43;;;;;;;3.7;2.1;;;;;;;33.68;28.6875;942.0052;;;;
2022/05/20 11:01:09;;;;;;;2.8;1.7;;;;;;;33.23;29.86133;941.9398;;;;
2022/05/20 11:03:34;;;;;;;2.5;2;;;;;;;32.95;29.32617;941.9048;;;;
2022/05/20 11:06:00;;;;;;;2.1;1.9;;;;;;;32.97;30.88965;941.8331;;;;
2022/05/20 11:08:25;;;;;;;3.6;2.1;;;;;;;33.13;28.22168;941.7841;;;;
2022/05/20 11:10:50;;;;;;;3.7;2.1;;;;;;;32.72;29.70801;941.6727;;;;
2022/05/20 11:13:15;;;;;;;2.1;1.9;;;;;;;32.67;29.09277;941.699;;;;
2022/05/20 11:15:45;;;;;;;3.7;2.4;;;;;;;32.79;29.29297;941.6209;;;;
2022/05/20 11:18:13;;;;;;;2.7;2.1;;;;;;;31.94;31.81445;941.56;;;;
2022/05/20 11:20:37;;;;;;;2.5;1.8;;;;;;;31.88;28.93457;941.555;;;;
2022/05/20 11:23:02;;;;;;;5.8;2.1;;;;;;;31.81;30.60645;941.5616;;;;
2022/05/20 11:25:29;;;;;;;3.4;2.1;;;;;;;31.84;30.26172;941.5139;;;;
2022/05/20 11:27:54;;;;;;;3.1;1.9;;;;;;;32.01;30.30957;941.4174;;;;
2022/05/20 11:30:22;;;;;;;5.2;2.2;;;;;;;31.79;29.91113;941.4285;;;;
2022/05/20 11:32:47;;;;;;;4.4;2.2;;;;;;;31.8;31.58887;941.4532;;;;
2022/05/20 11:35:12;;;;;;;2.8;2;;;;;;;31.67;31.33984;941.392;;;;
2022/05/20 11:37:37;;;;;;;3.4;2.1;;;;;;;31.88;29.97656;941.3791;;;;
2022/05/20 11:40:13;;;;;;;4.2;2.5;;;;;;;31.98;31.49316;941.3354;;;;
2022/05/20 11:42:47;;;;;;;2.1;1.8;;;;;;;32;27.58789;941.3172;;;;
2022/05/20 11:45:29;;;;;;;4.4;2.1;;;;;;;31.66;29.62598;941.3555;;;;
2022/05/20 11:47:36;;;;;;;2.7;2;;;;;;;32.09;31.50098;941.3075;;;;
2022/05/20 11:50:01;;;;;;;2.3;1.8;;;;;;;32.45;29.42676;941.2509;;;;
2022/05/20 11:52:27;;;;;;;24.9;7.7;;;;;;;32.64;31.10645;941.2773;;;;
2022/05/20 11:54:52;;;;;;;15.3;5.2;;;;;;;32.82;30.29102;941.166;;;;
2022/05/20 11:57:17;;;;;;;33.3;10;;;;;;;33.06;30.29492;941.1919;;;;
2022/05/20 11:59:42;;;;;;;4.1;2.3;;;;;;;33.27;27.62891;941.1133;;;;
2022/05/20 12:02:08;;;;;;;3.2;1.8;;;;;;;33.03;27.54199;941.0505;;;;
2022/05/20 12:04:33;;;;;;;3.7;2.1;;;;;;;32.98;26.24219;941.0315;;;;
2022/05/20 12:07:01;;;;;;;2.9;1.8;;;;;;;33.09;27.35352;940.9863;;;;
2022/05/20 12:09:26;;;;;;;4.7;1.8;;;;;;;33.21;26.77148;940.9778;;;;
2022/05/20 12:12:05;;;;;;;3.6;1.7;;;;;;;33.12;28.59277;940.9292;;;;
2022/05/20 12:14:25;;;;;;;3.4;2;;;;;;;32.98;27.61133;940.911;;;;
2022/05/20 12:16:51;;;;;;;24.7;7.6;;;;;;;33.07;30.05566;940.8564;;;;
2022/05/20 12:24:19;;;;;;;4.5;2;;;;;;;34;28.40723;940.8976;;;;
2022/05/20 12:26:38;;;;;;;13.9;4.5;;;;;;;34.03;30.9502;940.9346;;;;
2022/05/20 12:29:27;;;;;;;4.6;2.3;;;;;;;34.18;30.81543;940.92;;;;
2022/05/20 12:31:51;;;;;;;2.8;2.2;;;;;;;34.36;30.52539;940.8655;;;;
2022/05/20 12:34:34;;;;;;;2.8;1.9;;;;;;;34.5;29.7998;940.8428;;;;
2022/05/20 12:36:57;;;;;;;2.9;1.9;;;;;;;34.66;30.01563;940.7247;;;;
2022/05/20 12:39:24;;;;;;;3.2;2;;;;;;;34.87;29.78809;940.6702;;;;
2022/05/20 12:41:56;;;;;;;2.9;2.3;;;;;;;34.25;31.95117;940.6379;;;;
2022/05/20 12:44:20;;;;;;;3.9;2;;;;;;;34.09;29.46094;940.5595;;;;
2022/05/20 12:46:45;;;;;;;4.6;2.4;;;;;;;33.3;35.49121;940.6403;;;;
2022/05/20 12:49:10;;;;;;;4.1;2.1;;;;;;;33.54;32.19043;940.6508;;;;
2022/05/20 12:51:39;;;;;;;5.7;2.1;;;;;;;33.7;33.21289;940.5939;;;;
2022/05/20 12:54:04;;;;;;;2.1;1.9;;;;;;;33.81;32.87207;940.5234;;;;
2022/05/20 12:56:29;;;;;;;4.9;2.3;;;;;;;33.8;32.57031;940.5215;;;;
2022/05/20 12:58:58;;;;;;;3.6;2.2;;;;;;;33.8;32.91895;940.5;;;;
2022/05/20 13:01:26;;;;;;;2.9;2.5;;;;;;;33.66;31.81445;940.4675;;;;
2022/05/20 13:03:51;;;;;;;3.8;2.2;;;;;;;33.42;32.26563;940.4936;;;;
2022/05/20 13:06:16;;;;;;;3.9;2.3;;;;;;;33.32;32.33203;940.4366;;;;
2022/05/20 13:08:51;;;;;;;7.4;3;;;;;;;33.34;32.86133;940.4711;;;;
2022/05/20 13:11:15;;;;;;;3;2.2;;;;;;;33.5;34.17188;940.4375;;;;
2022/05/20 13:13:41;;;;;;;5.9;2.6;;;;;;;33.58;33.16797;940.4368;;;;
2022/05/20 13:16:06;;;;;;;2.8;1.9;;;;;;;33.54;32.52637;940.3359;;;;
2022/05/20 13:18:31;;;;;;;2.6;2.1;;;;;;;33.48;35.02441;940.291;;;;
2022/05/20 13:20:56;;;;;;;5;2.3;;;;;;;33.3;34.48145;940.2177;;;;
2022/05/20 13:23:25;;;;;;;3.1;2.4;;;;;;;33.26;32.95215;940.1972;;;;
2022/05/20 13:25:50;;;;;;;2.5;2.3;;;;;;;33.42;32.66309;940.1728;;;;
2022/05/20 13:28:21;;;;;;;3.5;2.2;;;;;;;33.34;32.32129;940.0982;;;;
2022/05/20 13:30:46;;;;;;;3.2;2.2;;;;;;;33.35;32.92285;940.0347;;;;
2022/05/20 13:33:14;;;;;;;4.7;2.3;;;;;;;33.4;32.70996;939.9442;;;;
2022/05/20 13:35:40;;;;;;;2.8;2.1;;;;;;;33.46;33.19531;939.9006;;;;
2022/05/20 13:38:05;;;;;;;3;2.1;;;;;;;33.52;34.35352;939.8314;;;;
2022/05/20 13:40:30;;;;;;;3;2.3;;;;;;;33.51;35.11035;939.7657;;;;
2022/05/20 13:42:58;;;;;;;5;2.9;;;;;;;33.5;32.21191;939.6711;;;;
2022/05/20 13:49:12;;;;;;;3.8;2;;;;;;;33.47;34.39746;939.6156;;;;
2022/05/20 13:50:15;;;;;;;8.9;2.5;;;;;;;33.41;33.52734;939.564;;;;
2022/05/20 13:52:43;;;;;;;3.9;2.2;;;;;;;33.28;32.29199;939.5319;;;;
2022/05/20 13:55:07;;;;;;;3.7;2.5;;;;;;;33.28;31.91992;939.529;;;;
2022/05/20 13:57:33;;;;;;;3.7;2.3;;;;;;;33.3;31.95703;939.5212;;;;
2022/05/20 13:59:59;;;;;;;4.4;2.2;;;;;;;32.93;32.05176;939.4774;;;;
2022/05/20 14:02:28;;;;;;;3.7;2.3;;;;;;;32.68;30.86914;939.4433;;;;
2022/05/20 14:04:53;;;;;;;2.8;2;;;;;;;32.91;30.63281;939.4172;;;;
2022/05/20 14:07:18;;;;;;;4.2;2.3;;;;;;;33.01;29.36621;939.3284;;;;
2022/05/20 14:09:43;;;;;;;4.5;2.5;;;;;;;33.11;29.03613;939.2092;;;;
2022/05/20 14:12:08;;;;;;;3.8;2.2;;;;;;;33.16;29.41211;939.1234;;;;
2022/05/20 14:14:34;;;;;;;5.5;2.1;;;;;;;33.17;29.76172;939.0734;;;;
2022/05/20 14:16:59;;;;;;;4.2;2.1;;;;;;;33.16;30.43359;939.0111;;;;
2022/05/20 14:19:25;;;;;;;2.5;1.9;;;;;;;33.06;31.56836;938.9536;;;;
2022/05/20 14:21:51;;;;;;;2.6;2;;;;;;;33.02;31.78125;938.8925;;;;
2022/05/20 14:24:16;;;;;;;4;2;;;;;;;32.96;30.92383;938.8807;;;;
2022/05/20 14:26:40;;;;;;;5;2.4;;;;;;;32.86;30.3418;938.804;;;;
2022/05/20 14:29:06;;;;;;;3.2;2.4;;;;;;;32.75;31.42676;938.845;;;;
2022/05/20 14:31:32;;;;;;;4.4;2.3;;;;;;;32.76;30.93457;938.8403;;;;
2022/05/20 14:33:57;;;;;;;4.1;2.5;;;;;;;32.71;31.49512;938.7963;;;;
2022/05/20 14:36:22;;;;;;;4.5;2.1;;;;;;;32.65;30.41113;938.7682;;;;
2022/05/20 14:38:47;;;;;;;4.7;2.5;;;;;;;32.6;31.08008;938.6926;;;;
2022/05/20 14:41:12;;;;;;;4.4;2.4;;;;;;;32.59;31.55957;938.7086;;;;
2022/05/20 14:43:40;;;;;;;4.3;2.2;;;;;;;32.62;32.41406;938.6881;;;;
2022/05/20 14:46:05;;;;;;;6.7;2.1;;;;;;;32.63;33.51758;938.7039;;;;
2022/05/20 14:48:34;;;;;;;4.4;2.5;;;;;;;32.6;32.92871;938.6333;;;;
2022/05/20 14:50:59;;;;;;;4.8;2.3;;;;;;;32.43;32.40039;938.6407;;;;
2022/05/20 14:53:26;;;;;;;3.3;2.2;;;;;;;32.41;34.62988;938.6581;;;;
2022/05/20 14:55:52;;;;;;;4.8;2.4;;;;;;;32.04;34.38574;938.5953;;;;
2022/05/20 14:58:16;;;;;;;3.7;2.4;;;;;;;31.96;35.7334;938.6096;;;;
2022/05/20 15:00:41;;;;;;;4.9;2.2;;;;;;;31.78;35.70801;938.5636;;;;
2022/05/20 15:03:09;;;;;;;3.9;2.3;;;;;;;31.72;35.9668;938.5994;;;;